sensor_id;sensor_type;location;lat;lon;timestamp;P1;durP1;ratioP1;P2;durP2;ratioP2
65706;SDS011;52423;43.512;5.220;2022-11-15T00:01:21;5.55;;;5.10;;
65706;SDS011;52423;43.512;5.220;2022-11-15T00:03:50;7.90;;;5.75;;
65706;SDS011;52423;43.512;5.220;2022-11-15T00:06:16;5.78;;;4.97;;
65706;SDS011;52423;43.512;5.220;2022-11-15T00:08:41;4.68;;;3.92;;
65706;SDS011;52423;43.512;5.220;2022-11-15T00:11:08;4.80;;;4.40;;
65706;SDS011;52423;43.512;5.220;2022-11-15T00:13:35;4.63;;;4.22;;
65706;SDS011;52423;43.512;5.220;2022-11-15T00:16:01;4.45;;;4.15;;
65706;SDS011;52423;43.512;5.220;2022-11-15T00:18:27;5.25;;;4.75;;
65706;SDS011;52423;43.512;5.220;2022-11-15T00:20:53;4.47;;;4.03;;
65706;SDS011;52423;43.512;5.220;2022-11-15T00:23:18;4.22;;;3.92;;
65706;SDS011;52423;43.512;5.220;2022-11-15T00:25:43;6.63;;;4.43;;
65706;SDS011;52423;43.512;5.220;2022-11-15T00:28:09;4.93;;;4.53;;
65706;SDS011;52423;43.512;5.220;2022-11-15T00:30:34;5.53;;;4.88;;
65706;SDS011;52423;43.512;5.220;2022-11-15T00:33:06;5.40;;;4.90;;
65706;SDS011;52423;43.512;5.220;2022-11-15T00:35:32;5.20;;;4.80;;
65706;SDS011;52423;43.512;5.220;2022-11-15T00:37:59;5.38;;;4.88;;
65706;SDS011;52423;43.512;5.220;2022-11-15T00:40:24;5.97;;;5.25;;
65706;SDS011;52423;43.512;5.220;2022-11-15T00:42:50;5.43;;;4.95;;
65706;SDS011;52423;43.512;5.220;2022-11-15T00:45:15;5.60;;;5.07;;
65706;SDS011;52423;43.512;5.220;2022-11-15T00:47:40;5.78;;;5.28;;
65706;SDS011;52423;43.512;5.220;2022-11-15T00:50:10;6.20;;;5.60;;
65706;SDS011;52423;43.512;5.220;2022-11-15T00:52:35;6.00;;;5.28;;
65706;SDS011;52423;43.512;5.220;2022-11-15T00:55:00;5.35;;;4.90;;
65706;SDS011;52423;43.512;5.220;2022-11-15T00:57:26;7.88;;;6.10;;
65706;SDS011;52423;43.512;5.220;2022-11-15T00:59:51;5.90;;;5.25;;
65706;SDS011;52423;43.512;5.220;2022-11-15T01:02:16;5.88;;;5.38;;
65706;SDS011;52423;43.512;5.220;2022-11-15T01:04:42;6.32;;;5.35;;
65706;SDS011;52423;43.512;5.220;2022-11-15T01:07:07;6.20;;;5.70;;
65706;SDS011;52423;43.512;5.220;2022-11-15T01:09:32;6.43;;;5.82;;
65706;SDS011;52423;43.512;5.220;2022-11-15T01:11:58;6.22;;;5.72;;
65706;SDS011;52423;43.512;5.220;2022-11-15T01:14:23;6.18;;;5.68;;
65706;SDS011;52423;43.512;5.220;2022-11-15T01:16:48;6.70;;;6.13;;
65706;SDS011;52423;43.512;5.220;2022-11-15T01:19:14;5.97;;;5.47;;
65706;SDS011;52423;43.512;5.220;2022-11-15T01:21:39;5.95;;;5.32;;
65706;SDS011;52423;43.512;5.220;2022-11-15T01:24:05;6.65;;;5.93;;
65706;SDS011;52423;43.512;5.220;2022-11-15T01:26:30;6.55;;;5.95;;
65706;SDS011;52423;43.512;5.220;2022-11-15T01:28:55;6.47;;;5.88;;
65706;SDS011;52423;43.512;5.220;2022-11-15T01:31:21;6.57;;;5.97;;
65706;SDS011;52423;43.512;5.220;2022-11-15T01:33:47;6.97;;;6.22;;
65706;SDS011;52423;43.512;5.220;2022-11-15T01:36:14;6.50;;;5.72;;
65706;SDS011;52423;43.512;5.220;2022-11-15T01:38:42;8.20;;;6.53;;
65706;SDS011;52423;43.512;5.220;2022-11-15T01:41:13;7.07;;;6.38;;
65706;SDS011;52423;43.512;5.220;2022-11-15T01:43:41;6.22;;;5.72;;
65706;SDS011;52423;43.512;5.220;2022-11-15T01:46:12;6.88;;;6.18;;
65706;SDS011;52423;43.512;5.220;2022-11-15T01:48:48;6.20;;;5.67;;
65706;SDS011;52423;43.512;5.220;2022-11-15T01:51:17;6.18;;;5.57;;
65706;SDS011;52423;43.512;5.220;2022-11-15T01:53:45;6.07;;;5.47;;
65706;SDS011;52423;43.512;5.220;2022-11-15T01:56:20;6.03;;;5.35;;
65706;SDS011;52423;43.512;5.220;2022-11-15T01:58:52;6.55;;;5.30;;
65706;SDS011;52423;43.512;5.220;2022-11-15T02:01:21;6.13;;;5.53;;
65706;SDS011;52423;43.512;5.220;2022-11-15T02:03:52;5.25;;;4.85;;
65706;SDS011;52423;43.512;5.220;2022-11-15T02:06:22;5.82;;;5.03;;
65706;SDS011;52423;43.512;5.220;2022-11-15T02:08:49;5.30;;;4.80;;
65706;SDS011;52423;43.512;5.220;2022-11-15T02:11:14;5.47;;;4.97;;
65706;SDS011;52423;43.512;5.220;2022-11-15T02:13:40;4.95;;;4.55;;
65706;SDS011;52423;43.512;5.220;2022-11-15T02:16:12;6.18;;;5.57;;
65706;SDS011;52423;43.512;5.220;2022-11-15T02:18:52;5.30;;;4.90;;
65706;SDS011;52423;43.512;5.220;2022-11-15T02:32:48;8.25;;;4.45;;
65706;SDS011;52423;43.512;5.220;2022-11-15T02:35:23;4.85;;;4.43;;
65706;SDS011;52423;43.512;5.220;2022-11-15T02:43:33;5.10;;;4.60;;
65706;SDS011;52423;43.512;5.220;2022-11-15T02:49:28;4.53;;;4.13;;
65706;SDS011;52423;43.512;5.220;2022-11-15T02:51:57;5.05;;;4.65;;
65706;SDS011;52423;43.512;5.220;2022-11-15T02:54:23;4.93;;;4.43;;
65706;SDS011;52423;43.512;5.220;2022-11-15T02:56:53;5.43;;;4.22;;
65706;SDS011;52423;43.512;5.220;2022-11-15T03:04:23;4.40;;;4.00;;
65706;SDS011;52423;43.512;5.220;2022-11-15T03:07:18;4.70;;;3.90;;
65706;SDS011;52423;43.512;5.220;2022-11-15T03:09:52;4.50;;;4.13;;
65706;SDS011;52423;43.512;5.220;2022-11-15T03:17:40;4.47;;;4.07;;
65706;SDS011;52423;43.512;5.220;2022-11-15T03:20:14;4.45;;;4.05;;
65706;SDS011;52423;43.512;5.220;2022-11-15T03:22:42;4.22;;;3.92;;
65706;SDS011;52423;43.512;5.220;2022-11-15T03:25:10;4.47;;;4.18;;
65706;SDS011;52423;43.512;5.220;2022-11-15T03:27:39;5.65;;;3.95;;
65706;SDS011;52423;43.512;5.220;2022-11-15T03:30:09;4.43;;;4.03;;
65706;SDS011;52423;43.512;5.220;2022-11-15T03:32:41;4.70;;;4.40;;
65706;SDS011;52423;43.512;5.220;2022-11-15T03:35:15;4.20;;;3.90;;
65706;SDS011;52423;43.512;5.220;2022-11-15T03:37:57;4.13;;;3.75;;
65706;SDS011;52423;43.512;5.220;2022-11-15T03:40:27;5.93;;;3.95;;
65706;SDS011;52423;43.512;5.220;2022-11-15T03:45:39;5.78;;;4.07;;
65706;SDS011;52423;43.512;5.220;2022-11-15T03:48:15;4.60;;;4.20;;
65706;SDS011;52423;43.512;5.220;2022-11-15T03:50:47;4.05;;;3.75;;
65706;SDS011;52423;43.512;5.220;2022-11-15T03:53:13;4.43;;;4.07;;
65706;SDS011;52423;43.512;5.220;2022-11-15T03:55:39;4.28;;;3.90;;
65706;SDS011;52423;43.512;5.220;2022-11-15T03:58:04;4.55;;;4.18;;
65706;SDS011;52423;43.512;5.220;2022-11-15T04:00:30;3.90;;;3.60;;
65706;SDS011;52423;43.512;5.220;2022-11-15T04:02:56;4.63;;;4.20;;
65706;SDS011;52423;43.512;5.220;2022-11-15T04:05:21;4.13;;;3.83;;
65706;SDS011;52423;43.512;5.220;2022-11-15T04:07:47;4.28;;;3.88;;
65706;SDS011;52423;43.512;5.220;2022-11-15T04:10:12;4.30;;;4.00;;
65706;SDS011;52423;43.512;5.220;2022-11-15T04:12:39;5.55;;;3.67;;
65706;SDS011;52423;43.512;5.220;2022-11-15T04:15:11;4.38;;;3.97;;
65706;SDS011;52423;43.512;5.220;2022-11-15T04:20:04;4.30;;;3.90;;
65706;SDS011;52423;43.512;5.220;2022-11-15T04:22:51;4.20;;;3.80;;
65706;SDS011;52423;43.512;5.220;2022-11-15T04:25:35;5.10;;;4.30;;
65706;SDS011;52423;43.512;5.220;2022-11-15T04:28:01;5.45;;;3.80;;
65706;SDS011;52423;43.512;5.220;2022-11-15T04:30:26;4.50;;;4.10;;
65706;SDS011;52423;43.512;5.220;2022-11-15T04:32:52;4.72;;;4.32;;
65706;SDS011;52423;43.512;5.220;2022-11-15T04:35:17;4.68;;;4.20;;
65706;SDS011;52423;43.512;5.220;2022-11-15T04:37:42;6.60;;;4.10;;
65706;SDS011;52423;43.512;5.220;2022-11-15T04:40:08;4.20;;;3.80;;
65706;SDS011;52423;43.512;5.220;2022-11-15T04:42:33;4.20;;;3.90;;
65706;SDS011;52423;43.512;5.220;2022-11-15T04:44:58;4.10;;;3.80;;
65706;SDS011;52423;43.512;5.220;2022-11-15T04:47:24;4.35;;;4.03;;
65706;SDS011;52423;43.512;5.220;2022-11-15T04:49:49;4.18;;;3.88;;
65706;SDS011;52423;43.512;5.220;2022-11-15T04:52:14;7.07;;;3.78;;
65706;SDS011;52423;43.512;5.220;2022-11-15T04:54:40;4.30;;;4.00;;
65706;SDS011;52423;43.512;5.220;2022-11-15T04:57:07;4.47;;;4.07;;
65706;SDS011;52423;43.512;5.220;2022-11-15T04:59:32;6.32;;;3.90;;
65706;SDS011;52423;43.512;5.220;2022-11-15T05:01:57;4.38;;;3.95;;
65706;SDS011;52423;43.512;5.220;2022-11-15T05:04:23;6.20;;;4.22;;
65706;SDS011;52423;43.512;5.220;2022-11-15T05:06:51;4.07;;;3.78;;
65706;SDS011;52423;43.512;5.220;2022-11-15T05:09:20;5.75;;;4.45;;
65706;SDS011;52423;43.512;5.220;2022-11-15T05:11:46;8.63;;;4.18;;
65706;SDS011;52423;43.512;5.220;2022-11-15T05:14:12;4.57;;;3.70;;
65706;SDS011;52423;43.512;5.220;2022-11-15T05:16:37;4.50;;;4.00;;
65706;SDS011;52423;43.512;5.220;2022-11-15T05:19:03;4.35;;;4.05;;
65706;SDS011;52423;43.512;5.220;2022-11-15T05:21:30;4.25;;;3.95;;
65706;SDS011;52423;43.512;5.220;2022-11-15T05:23:56;5.05;;;4.00;;
65706;SDS011;52423;43.512;5.220;2022-11-15T05:26:21;4.65;;;4.07;;
65706;SDS011;52423;43.512;5.220;2022-11-15T05:28:46;4.25;;;3.95;;
65706;SDS011;52423;43.512;5.220;2022-11-15T05:31:16;4.32;;;3.92;;
65706;SDS011;52423;43.512;5.220;2022-11-15T05:33:42;4.53;;;4.13;;
65706;SDS011;52423;43.512;5.220;2022-11-15T05:38:52;7.65;;;4.38;;
65706;SDS011;52423;43.512;5.220;2022-11-15T05:41:19;3.97;;;3.67;;
65706;SDS011;52423;43.512;5.220;2022-11-15T05:43:49;4.00;;;3.70;;
65706;SDS011;52423;43.512;5.220;2022-11-15T05:46:15;5.43;;;4.25;;
65706;SDS011;52423;43.512;5.220;2022-11-15T05:48:41;4.55;;;4.10;;
65706;SDS011;52423;43.512;5.220;2022-11-15T05:51:10;5.07;;;4.60;;
65706;SDS011;52423;43.512;5.220;2022-11-15T05:53:38;4.57;;;4.07;;
65706;SDS011;52423;43.512;5.220;2022-11-15T05:56:04;4.97;;;4.47;;
65706;SDS011;52423;43.512;5.220;2022-11-15T05:58:32;4.30;;;4.00;;
65706;SDS011;52423;43.512;5.220;2022-11-15T06:00:58;4.47;;;4.15;;
65706;SDS011;52423;43.512;5.220;2022-11-15T06:03:24;4.13;;;3.72;;
65706;SDS011;52423;43.512;5.220;2022-11-15T06:05:49;5.22;;;4.82;;
65706;SDS011;52423;43.512;5.220;2022-11-15T06:08:15;4.82;;;4.32;;
65706;SDS011;52423;43.512;5.220;2022-11-15T06:10:40;4.75;;;4.35;;
65706;SDS011;52423;43.512;5.220;2022-11-15T06:13:06;4.32;;;4.03;;
65706;SDS011;52423;43.512;5.220;2022-11-15T06:15:32;5.20;;;4.63;;
65706;SDS011;52423;43.512;5.220;2022-11-15T06:17:58;6.07;;;4.28;;
65706;SDS011;52423;43.512;5.220;2022-11-15T06:20:25;5.15;;;4.70;;
65706;SDS011;52423;43.512;5.220;2022-11-15T06:22:55;5.20;;;4.80;;
65706;SDS011;52423;43.512;5.220;2022-11-15T06:25:21;8.80;;;4.60;;
65706;SDS011;52423;43.512;5.220;2022-11-15T06:27:56;6.00;;;5.10;;
65706;SDS011;52423;43.512;5.220;2022-11-15T06:30:24;5.80;;;4.53;;
65706;SDS011;52423;43.512;5.220;2022-11-15T06:32:50;7.28;;;4.20;;
65706;SDS011;52423;43.512;5.220;2022-11-15T06:35:16;6.40;;;4.30;;
65706;SDS011;52423;43.512;5.220;2022-11-15T06:37:41;4.88;;;4.47;;
65706;SDS011;52423;43.512;5.220;2022-11-15T06:40:08;6.68;;;4.38;;
65706;SDS011;52423;43.512;5.220;2022-11-15T06:42:34;4.88;;;4.47;;
65706;SDS011;52423;43.512;5.220;2022-11-15T06:44:59;8.80;;;4.40;;
65706;SDS011;52423;43.512;5.220;2022-11-15T06:47:25;4.95;;;4.32;;
65706;SDS011;52423;43.512;5.220;2022-11-15T06:49:50;4.90;;;4.50;;
65706;SDS011;52423;43.512;5.220;2022-11-15T06:52:15;6.53;;;5.13;;
65706;SDS011;52423;43.512;5.220;2022-11-15T06:54:43;7.32;;;5.70;;
65706;SDS011;52423;43.512;5.220;2022-11-15T06:57:09;9.93;;;4.90;;
65706;SDS011;52423;43.512;5.220;2022-11-15T06:59:34;5.43;;;4.68;;
65706;SDS011;52423;43.512;5.220;2022-11-15T07:01:59;4.38;;;4.05;;
65706;SDS011;52423;43.512;5.220;2022-11-15T07:04:25;4.30;;;3.90;;
65706;SDS011;52423;43.512;5.220;2022-11-15T07:06:50;5.65;;;4.55;;
65706;SDS011;52423;43.512;5.220;2022-11-15T07:09:15;4.63;;;3.97;;
65706;SDS011;52423;43.512;5.220;2022-11-15T07:11:41;4.78;;;4.38;;
65706;SDS011;52423;43.512;5.220;2022-11-15T07:14:06;6.90;;;4.60;;
65706;SDS011;52423;43.512;5.220;2022-11-15T07:16:32;4.95;;;4.45;;
65706;SDS011;52423;43.512;5.220;2022-11-15T07:18:57;4.57;;;3.92;;
65706;SDS011;52423;43.512;5.220;2022-11-15T07:21:22;4.40;;;4.10;;
65706;SDS011;52423;43.512;5.220;2022-11-15T07:23:48;4.57;;;4.18;;
65706;SDS011;52423;43.512;5.220;2022-11-15T07:26:14;8.90;;;4.45;;
65706;SDS011;52423;43.512;5.220;2022-11-15T07:28:39;4.93;;;4.32;;
65706;SDS011;52423;43.512;5.220;2022-11-15T07:31:05;5.15;;;4.20;;
65706;SDS011;52423;43.512;5.220;2022-11-15T07:33:32;4.55;;;4.18;;
65706;SDS011;52423;43.512;5.220;2022-11-15T07:35:59;4.97;;;4.28;;
65706;SDS011;52423;43.512;5.220;2022-11-15T07:38:26;4.55;;;4.03;;
65706;SDS011;52423;43.512;5.220;2022-11-15T07:40:56;4.38;;;4.00;;
65706;SDS011;52423;43.512;5.220;2022-11-15T07:43:23;4.45;;;4.15;;
65706;SDS011;52423;43.512;5.220;2022-11-15T07:45:48;6.82;;;4.53;;
65706;SDS011;52423;43.512;5.220;2022-11-15T07:48:13;4.43;;;4.03;;
65706;SDS011;52423;43.512;5.220;2022-11-15T07:50:42;4.85;;;4.22;;
65706;SDS011;52423;43.512;5.220;2022-11-15T07:53:08;4.72;;;4.32;;
65706;SDS011;52423;43.512;5.220;2022-11-15T07:55:34;5.72;;;4.47;;
65706;SDS011;52423;43.512;5.220;2022-11-15T07:58:00;5.80;;;4.20;;
65706;SDS011;52423;43.512;5.220;2022-11-15T08:00:34;5.10;;;4.22;;
65706;SDS011;52423;43.512;5.220;2022-11-15T08:05:32;5.18;;;4.22;;
65706;SDS011;52423;43.512;5.220;2022-11-15T08:07:58;5.50;;;4.72;;
65706;SDS011;52423;43.512;5.220;2022-11-15T08:10:24;5.18;;;4.68;;
65706;SDS011;52423;43.512;5.220;2022-11-15T08:13:00;4.82;;;4.43;;
65706;SDS011;52423;43.512;5.220;2022-11-15T08:15:29;5.00;;;4.55;;
65706;SDS011;52423;43.512;5.220;2022-11-15T08:17:56;5.05;;;4.50;;
65706;SDS011;52423;43.512;5.220;2022-11-15T08:20:24;10.52;;;4.47;;
65706;SDS011;52423;43.512;5.220;2022-11-15T08:22:50;5.80;;;4.55;;
65706;SDS011;52423;43.512;5.220;2022-11-15T08:25:15;4.70;;;4.30;;
65706;SDS011;52423;43.512;5.220;2022-11-15T08:27:41;5.35;;;4.82;;
65706;SDS011;52423;43.512;5.220;2022-11-15T08:30:06;5.25;;;4.63;;
65706;SDS011;52423;43.512;5.220;2022-11-15T08:32:32;5.32;;;4.57;;
65706;SDS011;52423;43.512;5.220;2022-11-15T08:34:57;4.90;;;4.40;;
65706;SDS011;52423;43.512;5.220;2022-11-15T08:37:23;8.15;;;4.60;;
65706;SDS011;52423;43.512;5.220;2022-11-15T08:39:48;4.90;;;4.45;;
65706;SDS011;52423;43.512;5.220;2022-11-15T08:42:14;5.20;;;4.70;;
65706;SDS011;52423;43.512;5.220;2022-11-15T08:44:41;7.93;;;5.07;;
65706;SDS011;52423;43.512;5.220;2022-11-15T08:47:07;5.85;;;4.70;;
65706;SDS011;52423;43.512;5.220;2022-11-15T08:49:32;8.88;;;4.63;;
65706;SDS011;52423;43.512;5.220;2022-11-15T08:51:57;6.93;;;5.10;;
65706;SDS011;52423;43.512;5.220;2022-11-15T08:54:23;8.25;;;4.60;;
65706;SDS011;52423;43.512;5.220;2022-11-15T08:56:48;7.35;;;4.63;;
65706;SDS011;52423;43.512;5.220;2022-11-15T08:59:13;5.45;;;4.80;;
65706;SDS011;52423;43.512;5.220;2022-11-15T09:01:39;6.38;;;5.00;;
65706;SDS011;52423;43.512;5.220;2022-11-15T09:04:04;5.22;;;4.53;;
65706;SDS011;52423;43.512;5.220;2022-11-15T09:06:30;6.60;;;4.90;;
65706;SDS011;52423;43.512;5.220;2022-11-15T09:08:56;9.75;;;5.10;;
65706;SDS011;52423;43.512;5.220;2022-11-15T09:11:21;4.95;;;4.32;;
65706;SDS011;52423;43.512;5.220;2022-11-15T09:13:48;5.38;;;4.63;;
65706;SDS011;52423;43.512;5.220;2022-11-15T09:16:14;6.15;;;4.32;;
65706;SDS011;52423;43.512;5.220;2022-11-15T09:18:40;6.28;;;4.05;;
65706;SDS011;52423;43.512;5.220;2022-11-15T09:21:06;6.70;;;4.75;;
65706;SDS011;52423;43.512;5.220;2022-11-15T09:23:32;6.13;;;4.00;;
65706;SDS011;52423;43.512;5.220;2022-11-15T09:26:01;5.13;;;4.28;;
65706;SDS011;52423;43.512;5.220;2022-11-15T09:28:28;7.80;;;4.35;;
65706;SDS011;52423;43.512;5.220;2022-11-15T09:30:58;6.45;;;4.10;;
65706;SDS011;52423;43.512;5.220;2022-11-15T09:33:25;5.57;;;4.20;;
65706;SDS011;52423;43.512;5.220;2022-11-15T09:35:52;4.75;;;4.35;;
65706;SDS011;52423;43.512;5.220;2022-11-15T09:38:17;5.45;;;4.40;;
65706;SDS011;52423;43.512;5.220;2022-11-15T09:40:43;5.25;;;4.20;;
65706;SDS011;52423;43.512;5.220;2022-11-15T09:43:32;5.05;;;4.13;;
65706;SDS011;52423;43.512;5.220;2022-11-15T09:49:00;5.10;;;3.95;;
65706;SDS011;52423;43.512;5.220;2022-11-15T09:56:26;5.28;;;4.28;;
65706;SDS011;52423;43.512;5.220;2022-11-15T10:01:59;5.20;;;4.13;;
65706;SDS011;52423;43.512;5.220;2022-11-15T10:04:29;5.60;;;4.10;;
65706;SDS011;52423;43.512;5.220;2022-11-15T10:07:04;5.95;;;4.43;;
65706;SDS011;52423;43.512;5.220;2022-11-15T10:09:39;11.10;;;4.53;;
65706;SDS011;52423;43.512;5.220;2022-11-15T10:12:10;6.38;;;5.00;;
65706;SDS011;52423;43.512;5.220;2022-11-15T10:14:38;5.45;;;4.25;;
65706;SDS011;52423;43.512;5.220;2022-11-15T16:39:08;10.82;;;3.97;;
65706;SDS011;52423;43.512;5.220;2022-11-15T16:41:38;9.47;;;4.17;;
65706;SDS011;52423;43.512;5.220;2022-11-15T16:44:03;6.13;;;4.00;;
65706;SDS011;52423;43.512;5.220;2022-11-15T16:46:28;8.15;;;4.13;;
65706;SDS011;52423;43.512;5.220;2022-11-15T16:48:54;6.28;;;3.83;;
65706;SDS011;52423;43.512;5.220;2022-11-15T16:51:20;8.27;;;4.57;;
65706;SDS011;52423;43.512;5.220;2022-11-15T16:53:45;6.95;;;4.50;;
65706;SDS011;52423;43.512;5.220;2022-11-15T16:58:52;4.28;;;3.90;;
65706;SDS011;52423;43.512;5.220;2022-11-15T17:01:22;6.00;;;4.28;;
65706;SDS011;52423;43.512;5.220;2022-11-15T17:03:51;10.57;;;4.45;;
65706;SDS011;52423;43.512;5.220;2022-11-15T17:06:17;6.55;;;4.47;;
65706;SDS011;52423;43.512;5.220;2022-11-15T17:08:46;7.68;;;4.47;;
65706;SDS011;52423;43.512;5.220;2022-11-15T17:11:13;11.35;;;3.90;;
65706;SDS011;52423;43.512;5.220;2022-11-15T17:13:40;9.65;;;4.38;;
65706;SDS011;52423;43.512;5.220;2022-11-15T17:16:10;6.65;;;4.15;;
65706;SDS011;52423;43.512;5.220;2022-11-15T17:18:38;10.23;;;3.97;;
65706;SDS011;52423;43.512;5.220;2022-11-15T17:21:08;8.88;;;4.28;;
65706;SDS011;52423;43.512;5.220;2022-11-15T17:23:37;6.78;;;3.90;;
65706;SDS011;52423;43.512;5.220;2022-11-15T17:26:03;4.95;;;3.60;;
65706;SDS011;52423;43.512;5.220;2022-11-15T17:28:33;7.28;;;3.95;;
65706;SDS011;52423;43.512;5.220;2022-11-15T17:30:59;9.50;;;4.25;;
65706;SDS011;52423;43.512;5.220;2022-11-15T17:33:25;10.88;;;4.78;;
65706;SDS011;52423;43.512;5.220;2022-11-15T17:35:55;15.38;;;4.40;;
65706;SDS011;52423;43.512;5.220;2022-11-15T17:38:21;9.48;;;4.38;;
65706;SDS011;52423;43.512;5.220;2022-11-15T17:40:47;15.82;;;4.78;;
65706;SDS011;52423;43.512;5.220;2022-11-15T17:43:13;8.13;;;4.93;;
65706;SDS011;52423;43.512;5.220;2022-11-15T17:45:41;5.15;;;4.30;;
65706;SDS011;52423;43.512;5.220;2022-11-15T17:48:06;7.18;;;4.25;;
65706;SDS011;52423;43.512;5.220;2022-11-15T17:50:32;5.88;;;3.90;;
65706;SDS011;52423;43.512;5.220;2022-11-15T17:52:58;7.40;;;3.80;;
65706;SDS011;52423;43.512;5.220;2022-11-15T17:55:24;7.30;;;3.67;;
65706;SDS011;52423;43.512;5.220;2022-11-15T17:57:49;7.38;;;3.85;;
65706;SDS011;52423;43.512;5.220;2022-11-15T18:00:15;17.70;;;5.20;;
65706;SDS011;52423;43.512;5.220;2022-11-15T18:02:43;8.05;;;3.90;;
65706;SDS011;52423;43.512;5.220;2022-11-15T18:05:08;9.00;;;4.57;;
65706;SDS011;52423;43.512;5.220;2022-11-15T18:07:34;13.65;;;4.53;;
65706;SDS011;52423;43.512;5.220;2022-11-15T18:09:59;8.32;;;4.38;;
65706;SDS011;52423;43.512;5.220;2022-11-15T18:12:24;7.47;;;3.90;;
65706;SDS011;52423;43.512;5.220;2022-11-15T18:14:50;5.53;;;4.60;;
65706;SDS011;52423;43.512;5.220;2022-11-15T18:17:15;4.82;;;3.70;;
65706;SDS011;52423;43.512;5.220;2022-11-15T18:19:42;6.72;;;4.07;;
65706;SDS011;52423;43.512;5.220;2022-11-15T18:22:08;8.93;;;4.47;;
65706;SDS011;52423;43.512;5.220;2022-11-15T18:24:34;7.93;;;4.70;;
65706;SDS011;52423;43.512;5.220;2022-11-15T18:27:01;10.48;;;5.35;;
65706;SDS011;52423;43.512;5.220;2022-11-15T18:29:28;12.38;;;5.30;;
65706;SDS011;52423;43.512;5.220;2022-11-15T18:31:53;12.57;;;6.53;;
65706;SDS011;52423;43.512;5.220;2022-11-15T18:34:20;9.77;;;5.68;;
65706;SDS011;52423;43.512;5.220;2022-11-15T18:36:48;7.18;;;4.35;;
65706;SDS011;52423;43.512;5.220;2022-11-15T18:39:14;8.90;;;4.55;;
65706;SDS011;52423;43.512;5.220;2022-11-15T18:41:40;6.25;;;4.28;;
65706;SDS011;52423;43.512;5.220;2022-11-15T18:44:06;5.95;;;3.67;;
65706;SDS011;52423;43.512;5.220;2022-11-15T18:46:32;7.18;;;4.38;;
65706;SDS011;52423;43.512;5.220;2022-11-15T18:48:58;6.05;;;4.15;;
65706;SDS011;52423;43.512;5.220;2022-11-15T18:51:26;9.00;;;4.00;;
65706;SDS011;52423;43.512;5.220;2022-11-15T18:53:54;8.63;;;4.50;;
65706;SDS011;52423;43.512;5.220;2022-11-15T18:56:22;6.88;;;3.83;;
65706;SDS011;52423;43.512;5.220;2022-11-15T18:58:52;6.00;;;3.97;;
65706;SDS011;52423;43.512;5.220;2022-11-15T19:01:23;10.52;;;4.07;;
65706;SDS011;52423;43.512;5.220;2022-11-15T19:03:51;7.63;;;4.07;;
65706;SDS011;52423;43.512;5.220;2022-11-15T19:06:19;5.88;;;4.07;;
65706;SDS011;52423;43.512;5.220;2022-11-15T19:08:47;9.25;;;4.60;;
65706;SDS011;52423;43.512;5.220;2022-11-15T19:11:16;7.03;;;3.92;;
65706;SDS011;52423;43.512;5.220;2022-11-15T19:13:47;9.90;;;4.95;;
65706;SDS011;52423;43.512;5.220;2022-11-15T19:16:17;7.22;;;3.72;;
65706;SDS011;52423;43.512;5.220;2022-11-15T19:18:42;6.82;;;4.53;;
65706;SDS011;52423;43.512;5.220;2022-11-15T19:21:09;8.40;;;5.70;;
65706;SDS011;52423;43.512;5.220;2022-11-15T19:23:36;8.32;;;4.85;;
65706;SDS011;52423;43.512;5.220;2022-11-15T19:26:03;5.00;;;4.22;;
65706;SDS011;52423;43.512;5.220;2022-11-15T19:28:30;7.97;;;4.70;;
65706;SDS011;52423;43.512;5.220;2022-11-15T19:31:10;6.05;;;4.25;;
65706;SDS011;52423;43.512;5.220;2022-11-15T19:33:37;6.75;;;4.50;;
65706;SDS011;52423;43.512;5.220;2022-11-15T19:36:04;6.70;;;4.07;;
65706;SDS011;52423;43.512;5.220;2022-11-15T19:38:32;6.93;;;4.18;;
65706;SDS011;52423;43.512;5.220;2022-11-15T19:40:59;7.38;;;5.13;;
65706;SDS011;52423;43.512;5.220;2022-11-15T19:43:29;6.63;;;4.57;;
65706;SDS011;52423;43.512;5.220;2022-11-15T19:45:55;7.88;;;5.20;;
65706;SDS011;52423;43.512;5.220;2022-11-15T19:48:23;8.07;;;4.65;;
65706;SDS011;52423;43.512;5.220;2022-11-15T19:50:48;11.32;;;4.20;;
65706;SDS011;52423;43.512;5.220;2022-11-15T19:53:14;5.22;;;3.80;;
65706;SDS011;52423;43.512;5.220;2022-11-15T19:55:40;7.40;;;4.20;;
65706;SDS011;52423;43.512;5.220;2022-11-15T19:58:05;4.30;;;3.90;;
65706;SDS011;52423;43.512;5.220;2022-11-15T20:00:31;8.00;;;3.58;;
65706;SDS011;52423;43.512;5.220;2022-11-15T20:02:56;5.40;;;3.80;;
65706;SDS011;52423;43.512;5.220;2022-11-15T20:05:21;4.40;;;3.47;;
65706;SDS011;52423;43.512;5.220;2022-11-15T20:07:47;5.25;;;3.42;;
65706;SDS011;52423;43.512;5.220;2022-11-15T20:10:13;5.55;;;3.40;;
65706;SDS011;52423;43.512;5.220;2022-11-15T20:12:38;6.10;;;3.38;;
65706;SDS011;52423;43.512;5.220;2022-11-15T20:15:04;3.47;;;2.90;;
65706;SDS011;52423;43.512;5.220;2022-11-15T20:17:29;6.38;;;3.30;;
65706;SDS011;52423;43.512;5.220;2022-11-15T20:19:55;8.57;;;3.30;;
65706;SDS011;52423;43.512;5.220;2022-11-15T20:22:22;7.43;;;3.33;;
65706;SDS011;52423;43.512;5.220;2022-11-15T20:24:48;6.05;;;2.63;;
65706;SDS011;52423;43.512;5.220;2022-11-15T20:27:13;8.43;;;3.28;;
65706;SDS011;52423;43.512;5.220;2022-11-15T20:29:39;4.65;;;3.10;;
65706;SDS011;52423;43.512;5.220;2022-11-15T20:32:04;4.80;;;3.30;;
65706;SDS011;52423;43.512;5.220;2022-11-15T20:34:30;3.78;;;3.15;;
65706;SDS011;52423;43.512;5.220;2022-11-15T20:36:55;10.50;;;3.97;;
65706;SDS011;52423;43.512;5.220;2022-11-15T20:39:21;6.07;;;3.03;;
65706;SDS011;52423;43.512;5.220;2022-11-15T20:41:47;6.22;;;3.20;;
65706;SDS011;52423;43.512;5.220;2022-11-15T20:44:12;4.32;;;3.25;;
65706;SDS011;52423;43.512;5.220;2022-11-15T20:46:38;8.13;;;3.20;;
65706;SDS011;52423;43.512;5.220;2022-11-15T20:49:03;11.02;;;3.33;;
65706;SDS011;52423;43.512;5.220;2022-11-15T20:51:30;5.18;;;3.13;;
65706;SDS011;52423;43.512;5.220;2022-11-15T20:53:55;5.53;;;3.05;;
65706;SDS011;52423;43.512;5.220;2022-11-15T20:56:21;7.38;;;3.30;;
65706;SDS011;52423;43.512;5.220;2022-11-15T20:58:47;6.28;;;3.05;;
65706;SDS011;52423;43.512;5.220;2022-11-15T21:01:14;10.07;;;3.40;;
65706;SDS011;52423;43.512;5.220;2022-11-15T21:03:41;3.47;;;2.80;;
65706;SDS011;52423;43.512;5.220;2022-11-15T21:06:07;5.07;;;2.75;;
65706;SDS011;52423;43.512;5.220;2022-11-15T21:08:33;4.78;;;2.45;;
65706;SDS011;52423;43.512;5.220;2022-11-15T21:11:17;4.72;;;3.10;;
65706;SDS011;52423;43.512;5.220;2022-11-15T21:14:01;5.25;;;3.35;;
65706;SDS011;52423;43.512;5.220;2022-11-15T21:16:26;4.20;;;3.30;;
65706;SDS011;52423;43.512;5.220;2022-11-15T21:18:52;8.98;;;2.83;;
65706;SDS011;52423;43.512;5.220;2022-11-15T21:21:17;3.13;;;2.55;;
65706;SDS011;52423;43.512;5.220;2022-11-15T21:23:42;5.35;;;2.97;;
65706;SDS011;52423;43.512;5.220;2022-11-15T21:26:08;3.35;;;2.50;;
65706;SDS011;52423;43.512;5.220;2022-11-15T21:28:33;4.07;;;2.75;;
65706;SDS011;52423;43.512;5.220;2022-11-15T21:30:59;4.82;;;2.67;;
65706;SDS011;52423;43.512;5.220;2022-11-15T21:33:24;4.03;;;2.72;;
65706;SDS011;52423;43.512;5.220;2022-11-15T21:35:54;3.15;;;2.85;;
65706;SDS011;52423;43.512;5.220;2022-11-15T21:38:20;5.57;;;2.97;;
65706;SDS011;52423;43.512;5.220;2022-11-15T21:40:48;5.78;;;3.00;;
65706;SDS011;52423;43.512;5.220;2022-11-15T21:43:14;6.07;;;3.08;;
65706;SDS011;52423;43.512;5.220;2022-11-15T21:45:40;6.82;;;3.00;;
65706;SDS011;52423;43.512;5.220;2022-11-15T21:48:05;6.45;;;3.15;;
65706;SDS011;52423;43.512;5.220;2022-11-15T21:50:31;4.05;;;2.97;;
65706;SDS011;52423;43.512;5.220;2022-11-15T21:52:57;4.95;;;3.45;;
65706;SDS011;52423;43.512;5.220;2022-11-15T21:55:22;3.45;;;2.33;;
65706;SDS011;52423;43.512;5.220;2022-11-15T21:57:47;3.20;;;2.40;;
65706;SDS011;52423;43.512;5.220;2022-11-15T22:00:13;5.68;;;3.30;;
65706;SDS011;52423;43.512;5.220;2022-11-15T22:02:58;3.50;;;2.58;;
65706;SDS011;52423;43.512;5.220;2022-11-15T22:05:24;3.70;;;2.50;;